Time;durP1;ratioP1;P1;durP2;ratioP2;P2;SDS_P1;SDS_P2;PMS_P1;PMS_P2;Temp;Humidity;BMP_temperature;BMP_pressure;BME280_temperature;BME280_humidity;BME280_pressure;Samples;Min_cycle;Max_cycle;Signal;HPM_P1;HPM_P2
2023/04/20 00:00:14;;;;;;;5.35;2.15;;;;;;;;;;5007300;28;20058;-63
2023/04/20 00:02:46;;;;;;;5.97;2.22;;;;;;;;;;4961330;28;20061;-61
2023/04/20 00:05:17;;;;;;;6.15;2.20;;;;;;;;;;5009788;28;20050;-61
2023/04/20 00:07:47;;;;;;;4.05;2.10;;;;;;;;;;4976392;28;20046;-62
2023/04/20 00:10:17;;;;;;;4.05;1.73;;;;;;;;;;4960893;28;20054;-62
2023/04/20 00:12:47;;;;;;;6.55;1.90;;;;;;;;;;4954303;28;20046;-62
2023/04/20 00:15:17;;;;;;;7.43;2.10;;;;;;;;;;4922096;28;20495;-64
2023/04/20 00:17:47;;;;;;;3.88;1.98;;;;;;;;;;4938503;28;20058;-62
2023/04/20 00:20:18;;;;;;;5.97;2.10;;;;;;;;;;4970349;28;20474;-65
2023/04/20 00:22:48;;;;;;;5.25;1.90;;;;;;;;;;4970280;28;20059;-61
2023/04/20 00:25:18;;;;;;;4.43;1.63;;;;;;;;;;4939178;28;20059;-62
2023/04/20 00:27:48;;;;;;;6.43;2.00;;;;;;;;;;4954435;28;20054;-62
2023/04/20 00:30:18;;;;;;;3.90;2.00;;;;;;;;;;4970250;28;20066;-62
2023/04/20 00:32:48;;;;;;;6.15;1.83;;;;;;;;;;4953937;28;20058;-62
2023/04/20 00:35:18;;;;;;;3.72;1.80;;;;;;;;;;4960256;28;20172;-64
2023/04/20 00:37:49;;;;;;;3.30;1.60;;;;;;;;;;4951032;29;20070;-61
2023/04/20 00:40:19;;;;;;;3.35;1.58;;;;;;;;;;4950471;29;20047;-62
2023/04/20 00:42:49;;;;;;;4.78;1.60;;;;;;;;;;4903347;29;20070;-63
2023/04/20 00:45:21;;;;;;;6.18;1.52;;;;;;;;;;4950739;29;20063;-65
2023/04/20 00:47:51;;;;;;;3.83;1.60;;;;;;;;;;4950588;29;20082;-62
2023/04/20 00:50:21;;;;;;;4.72;1.77;;;;;;;;;;4931923;28;20446;-62
2023/04/20 00:52:51;;;;;;;6.50;1.40;;;;;;;;;;4956919;28;20054;-63
2023/04/20 00:55:22;;;;;;;3.60;1.40;;;;;;;;;;4957489;28;20066;-62
2023/04/20 00:57:52;;;;;;;8.77;1.98;;;;;;;;;;4989292;28;20054;-62
2023/04/20 01:00:26;;;;;;;3.83;1.20;;;;;;;;;;4918885;29;20054;-62
2023/04/20 01:02:56;;;;;;;2.88;1.20;;;;;;;;;;4893368;29;20053;-62
2023/04/20 01:05:27;;;;;;;3.20;1.30;;;;;;;;;;4861885;29;20513;-62
2023/04/20 01:07:57;;;;;;;3.58;1.48;;;;;;;;;;4893608;29;20048;-62
2023/04/20 01:10:30;;;;;;;2.47;1.33;;;;;;;;;;4893238;29;20399;-62
2023/04/20 01:13:00;;;;;;;3.53;1.23;;;;;;;;;;4874385;29;20421;-62
2023/04/20 01:15:30;;;;;;;8.30;1.48;;;;;;;;;;4855737;29;20065;-62
2023/04/20 01:18:01;;;;;;;2.42;1.02;;;;;;;;;;4855821;29;20072;-62
2023/04/20 01:20:32;;;;;;;2.30;1.02;;;;;;;;;;4855854;29;20064;-62
2023/04/20 01:23:02;;;;;;;3.42;1.42;;;;;;;;;;4837334;29;20525;-62
2023/04/20 01:25:33;;;;;;;2.50;1.10;;;;;;;;;;4837652;29;20062;-62
2023/04/20 01:28:03;;;;;;;2.92;1.15;;;;;;;;;;4837708;29;20058;-62
2023/04/20 01:30:37;;;;;;;3.28;1.10;;;;;;;;;;4875986;29;20052;-62
2023/04/20 01:33:07;;;;;;;7.88;1.10;;;;;;;;;;4892885;29;20049;-62
2023/04/20 01:35:42;;;;;;;3.10;0.95;;;;;;;;;;4825741;29;20530;-62
2023/04/20 01:38:21;;;;;;;4.28;1.20;;;;;;;;;;4873934;29;20059;-63
2023/04/20 01:40:54;;;;;;;3.25;1.35;;;;;;;;;;4899945;29;20520;-63
2023/04/20 01:43:25;;;;;;;2.80;1.42;;;;;;;;;;4848158;29;20063;-61
2023/04/20 01:45:55;;;;;;;4.75;1.65;;;;;;;;;;4892812;29;20142;-62
2023/04/20 01:48:25;;;;;;;4.75;1.45;;;;;;;;;;4858051;29;20065;-62
2023/04/20 01:50:55;;;;;;;3.28;1.55;;;;;;;;;;4870554;29;20053;-62
2023/04/20 01:53:25;;;;;;;2.80;1.08;;;;;;;;;;4859174;29;20068;-63
2023/04/20 01:55:55;;;;;;;3.08;1.15;;;;;;;;;;4859059;29;20454;-62
2023/04/20 01:58:25;;;;;;;2.53;1.00;;;;;;;;;;4833513;29;20058;-63
2023/04/20 02:00:55;;;;;;;4.05;1.05;;;;;;;;;;4836965;29;20084;-61
2023/04/20 02:03:27;;;;;;;6.82;1.30;;;;;;;;;;4840629;29;20060;-62
2023/04/20 02:05:57;;;;;;;2.55;1.20;;;;;;;;;;4821992;29;20054;-61
2023/04/20 02:08:29;;;;;;;;;;;;;;;;;;4804596;29;20058;-62
2023/04/20 02:11:00;;;;;;;3.00;1.45;;;;;;;;;;4803658;29;19972;-62
2023/04/20 02:13:30;;;;;;;4.28;1.08;;;;;;;;;;4793769;29;20066;-62
2023/04/20 02:16:00;;;;;;;3.00;1.00;;;;;;;;;;4786273;30;20051;-62
2023/04/20 02:18:31;;;;;;;5.63;1.40;;;;;;;;;;4786148;30;20067;-62
2023/04/20 02:21:02;;;;;;;4.00;1.73;;;;;;;;;;4786242;30;20568;-63
2023/04/20 02:23:32;;;;;;;3.40;1.27;;;;;;;;;;4786025;30;20063;-62
2023/04/20 02:26:02;;;;;;;1.60;0.82;;;;;;;;;;4803294;29;20181;-62
2023/04/20 02:28:32;;;;;;;3.97;1.48;;;;;;;;;;4822185;29;20503;-62
2023/04/20 02:31:05;;;;;;;5.22;1.60;;;;;;;;;;4800223;29;20058;-63
2023/04/20 02:33:35;;;;;;;3.75;1.70;;;;;;;;;;4821676;29;20567;-67
2023/04/20 02:36:06;;;;;;;5.53;1.73;;;;;;;;;;4840530;29;20061;-62
2023/04/20 02:38:36;;;;;;;6.32;2.10;;;;;;;;;;4870181;29;20053;-62
2023/04/20 02:41:07;;;;;;;3.30;1.45;;;;;;;;;;4876107;29;20066;-62
2023/04/20 02:43:38;;;;;;;8.13;1.73;;;;;;;;;;4886406;29;20052;-63
2023/04/20 02:46:11;;;;;;;3.17;1.48;;;;;;;;;;4867289;29;20048;-62
2023/04/20 02:48:41;;;;;;;4.70;1.80;;;;;;;;;;4886507;29;20055;-62
2023/04/20 02:51:14;;;;;;;2.67;1.00;;;;;;;;;;4933351;29;20047;-62
2023/04/20 02:53:45;;;;;;;3.78;1.40;;;;;;;;;;4895532;29;20064;-63
2023/04/20 02:56:23;;;;;;;3.63;1.20;;;;;;;;;;4876701;29;20072;-62
2023/04/20 02:58:58;;;;;;;4.90;1.40;;;;;;;;;;4857850;29;20049;-64
2023/04/20 03:01:33;;;;;;;3.80;1.70;;;;;;;;;;4862288;29;20414;-63
2023/04/20 03:04:19;;;;;;;7.47;1.35;;;;;;;;;;4839686;29;20076;-63
2023/04/20 03:07:00;;;;;;;3.70;1.00;;;;;;;;;;4839576;29;20057;-63
2023/04/20 03:09:33;;;;;;;2.45;1.00;;;;;;;;;;4821151;29;20061;-63
2023/04/20 03:12:22;;;;;;;5.05;0.95;;;;;;;;;;4783315;29;20059;-62
2023/04/20 03:14:55;;;;;;;5.85;1.10;;;;;;;;;;4821674;29;20540;-63
2023/04/20 03:17:41;;;;;;;4.40;1.10;;;;;;;;;;4802803;29;20089;-62
2023/04/20 03:20:12;;;;;;;4.03;0.98;;;;;;;;;;4752638;30;20055;-62
2023/04/20 03:22:42;;;;;;;5.78;1.13;;;;;;;;;;4784722;29;20062;-63
2023/04/20 03:25:12;;;;;;;4.95;1.00;;;;;;;;;;4754369;29;20051;-62
2023/04/20 03:27:54;;;;;;;3.40;0.73;;;;;;;;;;4757799;29;20051;-64
2023/04/20 03:30:25;;;;;;;7.57;1.20;;;;;;;;;;4804015;29;20078;-62
2023/04/20 03:33:03;;;;;;;6.68;1.10;;;;;;;;;;4770241;29;20055;-66
2023/04/20 03:35:34;;;;;;;4.65;1.02;;;;;;;;;;4786710;29;20067;-61
2023/04/20 03:38:05;;;;;;;3.13;1.05;;;;;;;;;;4805440;29;20057;-62
2023/04/20 03:40:37;;;;;;;9.32;1.00;;;;;;;;;;4805825;29;20073;-62
2023/04/20 03:43:07;;;;;;;4.25;0.93;;;;;;;;;;4802589;29;20055;-62
2023/04/20 03:45:37;;;;;;;7.03;1.20;;;;;;;;;;4820657;29;20066;-62
2023/04/20 03:48:07;;;;;;;4.25;0.88;;;;;;;;;;4824524;29;20057;-62
2023/04/20 03:50:38;;;;;;;3.70;0.90;;;;;;;;;;4857330;29;20068;-63
2023/04/20 03:53:08;;;;;;;4.43;0.80;;;;;;;;;;4857581;29;20058;-62
2023/04/20 03:55:39;;;;;;;4.25;1.63;;;;;;;;;;4838799;29;20061;-62
2023/04/20 03:58:13;;;;;;;3.50;1.10;;;;;;;;;;4850346;29;20053;-62
2023/04/20 04:01:00;;;;;;;6.50;1.02;;;;;;;;;;4838583;29;20499;-62
2023/04/20 04:03:31;;;;;;;3.15;0.90;;;;;;;;;;4852502;29;20061;-62
2023/04/20 04:06:03;;;;;;;3.40;0.93;;;;;;;;;;4820677;29;20061;-63
2023/04/20 04:08:34;;;;;;;3.80;0.75;;;;;;;;;;4805144;29;20057;-61
2023/04/20 04:11:04;;;;;;;4.35;1.20;;;;;;;;;;4783526;29;20147;-63
2023/04/20 04:13:34;;;;;;;2.00;0.63;;;;;;;;;;4784066;29;20067;-65
2023/04/20 04:16:07;;;;;;;2.33;0.80;;;;;;;;;;4772335;29;20062;-62
2023/04/20 04:18:41;;;;;;;3.72;0.82;;;;;;;;;;4801905;29;20420;-63
2023/04/20 04:21:11;;;;;;;2.30;0.80;;;;;;;;;;4789874;29;20067;-62
2023/04/20 04:23:45;;;;;;;2.08;0.80;;;;;;;;;;4751111;30;20406;-63
2023/04/20 04:26:42;;;;;;;5.40;0.80;;;;;;;;;;4741884;30;20056;-65
2023/04/20 04:29:13;;;;;;;1.95;0.85;;;;;;;;;;4747900;30;20063;-62
2023/04/20 04:31:43;;;;;;;3.22;1.00;;;;;;;;;;4747814;30;20473;-63
2023/04/20 04:34:20;;;;;;;2.05;0.93;;;;;;;;;;4730831;29;20788;-62
2023/04/20 04:36:52;;;;;;;2.58;0.80;;;;;;;;;;4747790;30;20049;-62
2023/04/20 04:39:30;;;;;;;1.05;0.52;;;;;;;;;;4763450;30;20207;-62
2023/04/20 04:42:09;;;;;;;2.88;1.23;;;;;;;;;;4765583;30;20390;-63
2023/04/20 04:44:43;;;;;;;5.30;1.02;;;;;;;;;;4765550;30;20052;-62
2023/04/20 04:47:20;;;;;;;3.08;0.88;;;;;;;;;;4775075;30;20044;-64
2023/04/20 04:49:53;;;;;;;2.92;1.45;;;;;;;;;;4762553;30;20075;-62
2023/04/20 04:52:23;;;;;;;2.13;0.88;;;;;;;;;;4747729;30;20055;-63
2023/04/20 04:54:53;;;;;;;3.78;1.10;;;;;;;;;;4785906;29;20058;-63
2023/04/20 04:57:23;;;;;;;2.30;0.80;;;;;;;;;;4801526;29;20063;-63
2023/04/20 04:59:54;;;;;;;2.67;0.70;;;;;;;;;;4834296;29;20621;-63
2023/04/20 05:02:25;;;;;;;3.65;0.80;;;;;;;;;;4835698;29;20419;-63
2023/04/20 05:04:55;;;;;;;1.83;0.80;;;;;;;;;;4786847;29;20059;-62
2023/04/20 05:07:25;;;;;;;7.65;0.73;;;;;;;;;;4801433;29;20063;-66
2023/04/20 05:09:56;;;;;;;4.30;0.70;;;;;;;;;;4814438;29;20069;-62
2023/04/20 05:12:26;;;;;;;2.10;0.73;;;;;;;;;;4819555;29;20089;-62
2023/04/20 05:14:56;;;;;;;2.08;0.68;;;;;;;;;;4828240;29;20102;-62
2023/04/20 05:17:25;;;;;;;5.00;0.75;;;;;;;;;;4837832;29;20061;-63
2023/04/20 05:19:56;;;;;;;4.03;1.08;;;;;;;;;;4865493;29;20057;-61
2023/04/20 05:22:25;;;;;;;2.83;0.90;;;;;;;;;;4892568;29;20056;-63
2023/04/20 05:24:55;;;;;;;2.42;0.75;;;;;;;;;;4893278;29;20666;-63
2023/04/20 05:27:25;;;;;;;4.28;0.77;;;;;;;;;;4908761;29;20068;-62
2023/04/20 05:29:55;;;;;;;5.32;1.00;;;;;;;;;;4905037;29;20066;-62
2023/04/20 05:32:46;;;;;;;2.60;1.20;;;;;;;;;;4961347;28;20078;-63
2023/04/20 05:35:21;;;;;;;2.35;0.80;;;;;;;;;;4969460;28;20399;-61
2023/04/20 05:37:52;;;;;;;2.58;0.90;;;;;;;;;;4969426;28;20546;-61
2023/04/20 05:40:22;;;;;;;4.57;1.30;;;;;;;;;;4965270;28;20049;-61
2023/04/20 05:42:52;;;;;;;3.95;1.55;;;;;;;;;;4940199;28;20085;-62
2023/04/20 05:45:22;;;;;;;5.93;1.50;;;;;;;;;;4940605;28;20047;-64
2023/04/20 05:47:56;;;;;;;3.50;1.50;;;;;;;;;;4988930;28;20054;-63
2023/04/20 05:50:26;;;;;;;5.22;1.27;;;;;;;;;;4988856;28;20054;-63
2023/04/20 05:52:56;;;;;;;5.18;1.25;;;;;;;;;;4972360;28;20546;-62
2023/04/20 05:55:26;;;;;;;3.90;1.30;;;;;;;;;;4988906;28;20046;-64
2023/04/20 05:57:56;;;;;;;3.42;1.50;;;;;;;;;;4972855;28;20410;-63
2023/04/20 06:00:26;;;;;;;3.58;1.40;;;;;;;;;;4988808;28;20186;-63
2023/04/20 06:02:56;;;;;;;10.25;2.42;;;;;;;;;;4956238;28;20406;-64
2023/04/20 06:05:26;;;;;;;9.68;1.77;;;;;;;;;;4988820;28;20062;-62
2023/04/20 06:07:58;;;;;;;6.35;1.50;;;;;;;;;;4988703;28;20046;-62
2023/04/20 06:10:31;;;;;;;6.75;1.33;;;;;;;;;;4988247;28;20085;-64
2023/04/20 06:13:01;;;;;;;5.68;1.30;;;;;;;;;;4988823;28;20506;-63
2023/04/20 06:15:31;;;;;;;5.53;1.60;;;;;;;;;;4988599;28;20054;-62
2023/04/20 06:18:01;;;;;;;4.40;1.50;;;;;;;;;;4940411;28;20058;-62
2023/04/20 06:20:31;;;;;;;6.80;1.50;;;;;;;;;;4990960;28;20046;-63
2023/04/20 06:23:01;;;;;;;4.78;1.50;;;;;;;;;;4990960;28;20062;-62
2023/04/20 06:25:31;;;;;;;11.35;1.35;;;;;;;;;;4990760;28;20050;-63
2023/04/20 06:28:03;;;;;;;10.48;1.55;;;;;;;;;;4990971;28;20046;-63
2023/04/20 06:30:36;;;;;;;7.93;1.05;;;;;;;;;;4990863;28;20042;-63
2023/04/20 06:33:06;;;;;;;16.40;1.23;;;;;;;;;;4991258;28;20372;-62
2023/04/20 06:35:40;;;;;;;8.02;1.02;;;;;;;;;;4991099;28;20057;-62
2023/04/20 06:38:10;;;;;;;11.85;1.27;;;;;;;;;;4994413;28;20521;-63
2023/04/20 06:40:40;;;;;;;2.08;0.75;;;;;;;;;;4960966;28;20695;-63
2023/04/20 06:43:11;;;;;;;4.85;1.08;;;;;;;;;;4994189;28;20379;-62
2023/04/20 06:45:41;;;;;;;2.92;1.00;;;;;;;;;;4994029;28;20054;-62
2023/04/20 06:48:11;;;;;;;5.57;1.00;;;;;;;;;;4991970;28;20070;-62
2023/04/20 06:51:00;;;;;;;4.50;1.00;;;;;;;;;;4943724;28;20062;-63
2023/04/20 06:53:31;;;;;;;7.13;1.10;;;;;;;;;;4959694;28;20054;-64
2023/04/20 06:56:01;;;;;;;2.45;1.05;;;;;;;;;;4959390;28;20525;-64
2023/04/20 06:58:31;;;;;;;5.95;1.50;;;;;;;;;;4975672;28;20054;-62
2023/04/20 07:01:01;;;;;;;10.82;1.17;;;;;;;;;;4993643;28;20038;-65
2023/04/20 07:03:32;;;;;;;5.25;1.15;;;;;;;;;;4991272;28;20057;-63
2023/04/20 07:06:02;;;;;;;3.13;1.17;;;;;;;;;;4991252;28;20515;-63
2023/04/20 07:08:33;;;;;;;7.15;1.23;;;;;;;;;;4991282;28;20065;-62
2023/04/20 07:11:03;;;;;;;5.05;1.30;;;;;;;;;;4942843;28;20050;-62
2023/04/20 07:13:33;;;;;;;7.18;1.25;;;;;;;;;;4943299;28;20055;-62
2023/04/20 07:16:04;;;;;;;6.07;1.17;;;;;;;;;;4991180;28;20379;-63
2023/04/20 07:18:34;;;;;;;12.52;1.25;;;;;;;;;;4991153;28;20073;-63
2023/04/20 07:21:04;;;;;;;6.80;1.10;;;;;;;;;;4991383;28;20062;-63
2023/04/20 07:23:34;;;;;;;6.65;1.17;;;;;;;;;;4958681;28;20058;-63
2023/04/20 07:26:04;;;;;;;6.28;0.90;;;;;;;;;;4958780;28;20062;-62
2023/04/20 07:28:35;;;;;;;6.53;1.10;;;;;;;;;;4958688;28;20053;-64
2023/04/20 07:31:05;;;;;;;2.22;1.00;;;;;;;;;;4958466;28;20727;-62
2023/04/20 07:33:35;;;;;;;2.92;1.13;;;;;;;;;;4958426;28;20058;-66
2023/04/20 07:36:05;;;;;;;3.10;1.30;;;;;;;;;;4991051;28;20395;-62
2023/04/20 07:38:36;;;;;;;5.28;1.17;;;;;;;;;;4990882;28;20046;-63
2023/04/20 07:41:09;;;;;;;1.75;0.90;;;;;;;;;;4991727;28;20062;-63
2023/04/20 07:43:39;;;;;;;4.55;0.95;;;;;;;;;;4958665;28;20057;-64
2023/04/20 07:46:09;;;;;;;7.20;1.10;;;;;;;;;;4991937;28;20410;-63
2023/04/20 07:48:40;;;;;;;3.00;1.08;;;;;;;;;;4959412;28;20058;-63
2023/04/20 07:51:11;;;;;;;4.13;1.20;;;;;;;;;;4975037;28;20050;-64
2023/04/20 07:53:41;;;;;;;3.53;1.33;;;;;;;;;;4993102;28;20034;-62
2023/04/20 07:56:11;;;;;;;4.22;1.17;;;;;;;;;;4992977;28;20572;-62
2023/04/20 07:58:41;;;;;;;4.47;0.90;;;;;;;;;;4942457;28;20061;-63
2023/04/20 08:01:13;;;;;;;3.30;1.15;;;;;;;;;;4992722;28;20418;-63
2023/04/20 08:03:43;;;;;;;2.45;1.20;;;;;;;;;;4992943;28;20050;-63
2023/04/20 08:06:14;;;;;;;5.88;1.00;;;;;;;;;;4942419;28;20054;-64
2023/04/20 08:08:44;;;;;;;5.03;1.77;;;;;;;;;;4992622;28;20070;-63
2023/04/20 08:11:14;;;;;;;2.22;1.15;;;;;;;;;;4992610;28;20053;-63
2023/04/20 08:13:44;;;;;;;7.72;2.40;;;;;;;;;;4992377;28;20046;-63
2023/04/20 08:16:14;;;;;;;4.93;1.10;;;;;;;;;;4957986;28;20054;-63
2023/04/20 08:18:45;;;;;;;9.70;1.30;;;;;;;;;;4958447;28;20054;-64
2023/04/20 08:21:16;;;;;;;11.90;1.55;;;;;;;;;;4992490;28;20050;-63
2023/04/20 08:23:46;;;;;;;7.63;1.13;;;;;;;;;;4992438;28;20046;-62
2023/04/20 08:26:16;;;;;;;3.40;1.20;;;;;;;;;;4992245;28;20057;-63
2023/04/20 08:28:46;;;;;;;7.18;1.40;;;;;;;;;;4958632;28;20061;-62
2023/04/20 08:31:16;;;;;;;2.88;1.17;;;;;;;;;;4942095;28;20065;-65
2023/04/20 08:33:46;;;;;;;2.50;1.08;;;;;;;;;;4973751;28;20054;-63
2023/04/20 08:36:16;;;;;;;4.68;1.13;;;;;;;;;;4973681;28;20058;-64
2023/04/20 08:38:54;;;;;;;10.20;1.50;;;;;;;;;;4992263;28;20514;-63
2023/04/20 08:41:25;;;;;;;2.67;1.00;;;;;;;;;;4957490;28;20065;-63
2023/04/20 08:43:55;;;;;;;4.53;1.50;;;;;;;;;;4992108;28;20073;-63
2023/04/20 08:46:26;;;;;;;7.90;1.38;;;;;;;;;;4957589;28;20073;-63
2023/04/20 08:48:57;;;;;;;4.72;1.75;;;;;;;;;;4989648;28;20057;-63
2023/04/20 08:51:27;;;;;;;4.68;1.75;;;;;;;;;;4973605;28;20402;-64
2023/04/20 08:54:04;;;;;;;5.05;1.75;;;;;;;;;;4992198;28;20046;-63
2023/04/20 08:56:39;;;;;;;10.98;1.45;;;;;;;;;;4926703;28;20057;-63
2023/04/20 08:59:11;;;;;;;2.83;1.25;;;;;;;;;;4968509;28;20601;-63
2023/04/20 09:01:43;;;;;;;4.93;1.25;;;;;;;;;;5010496;28;20054;-63
2023/04/20 09:04:23;;;;;;;5.75;1.13;;;;;;;;;;4975188;28;20052;-63
2023/04/20 09:06:55;;;;;;;9.60;1.55;;;;;;;;;;4977280;28;20069;-64
2023/04/20 09:09:26;;;;;;;3.65;1.35;;;;;;;;;;4994247;28;20041;-63
2023/04/20 09:12:03;;;;;;;21.98;2.20;;;;;;;;;;5029612;28;20053;-63
2023/04/20 09:14:47;;;;;;;7.90;1.75;;;;;;;;;;5027336;28;20045;-63
2023/04/20 09:17:39;;;;;;;6.45;1.83;;;;;;;;;;5028300;28;20042;-63
2023/04/20 09:20:10;;;;;;;6.07;1.58;;;;;;;;;;5010180;28;20057;-63
2023/04/20 09:22:40;;;;;;;5.35;1.10;;;;;;;;;;5030045;28;20049;-63
2023/04/20 09:25:17;;;;;;;2.25;1.00;;;;;;;;;;5029575;28;20056;-63
2023/04/20 09:28:01;;;;;;;9.82;1.27;;;;;;;;;;4995144;28;20085;-63
2023/04/20 09:30:57;;;;;;;3.30;1.30;;;;;;;;;;5029702;28;20049;-63
2023/04/20 09:33:28;;;;;;;4.43;1.60;;;;;;;;;;4936154;28;20125;-63
2023/04/20 09:36:07;;;;;;;10.43;1.25;;;;;;;;;;4918121;29;20047;-63
2023/04/20 09:38:37;;;;;;;8.27;1.70;;;;;;;;;;4933553;29;20067;-63
2023/04/20 09:41:08;;;;;;;5.32;1.20;;;;;;;;;;4949251;29;20055;-63
2023/04/20 09:43:40;;;;;;;2.92;1.25;;;;;;;;;;4933237;29;20059;-62
2023/04/20 09:46:11;;;;;;;4.75;1.55;;;;;;;;;;4949265;29;20051;-62
2023/04/20 09:48:41;;;;;;;9.07;1.60;;;;;;;;;;4949185;29;20058;-63
2023/04/20 09:51:11;;;;;;;2.97;1.30;;;;;;;;;;4932965;29;20063;-63
2023/04/20 09:53:42;;;;;;;11.50;1.55;;;;;;;;;;4948999;29;20048;-63
2023/04/20 09:56:14;;;;;;;3.30;1.23;;;;;;;;;;4932839;29;20063;-62
2023/04/20 09:58:46;;;;;;;2.35;1.08;;;;;;;;;;4870151;29;2306611;-63
2023/04/20 10:01:19;;;;;;;5.93;1.35;;;;;;;;;;4942947;28;20054;-63
2023/04/20 10:03:50;;;;;;;9.38;1.58;;;;;;;;;;4969175;28;20054;-62
2023/04/20 10:06:24;;;;;;;7.15;1.23;;;;;;;;;;4921598;28;20061;-62
2023/04/20 10:08:55;;;;;;;5.20;1.25;;;;;;;;;;4970579;28;20182;-62
2023/04/20 10:11:30;;;;;;;4.85;1.27;;;;;;;;;;5011032;28;20061;-63
2023/04/20 10:14:22;;;;;;;3.20;1.45;;;;;;;;;;5013928;28;20061;-62
2023/04/20 10:17:07;;;;;;;8.30;1.40;;;;;;;;;;4981455;28;20058;-63
2023/04/20 10:19:43;;;;;;;3.40;1.58;;;;;;;;;;4979000;28;20520;-63
2023/04/20 10:22:29;;;;;;;4.25;1.70;;;;;;;;;;5014000;28;20041;-62
2023/04/20 10:25:19;;;;;;;3.55;1.33;;;;;;;;;;4965233;28;20058;-65
2023/04/20 10:27:59;;;;;;;4.70;1.92;;;;;;;;;;5013967;28;20042;-62
2023/04/20 10:30:29;;;;;;;7.20;2.35;;;;;;;;;;5013949;28;20506;-62
2023/04/20 10:33:10;;;;;;;6.25;2.72;;;;;;;;;;5014002;28;20046;-62
2023/04/20 10:35:55;;;;;;;9.48;3.85;;;;;;;;;;5013765;28;20042;-62
2023/04/20 10:38:29;;;;;;;10.55;4.25;;;;;;;;;;5013903;28;20049;-63
2023/04/20 10:41:10;;;;;;;7.10;3.33;;;;;;;;;;4995656;28;20056;-62
2023/04/20 10:43:43;;;;;;;7.55;3.10;;;;;;;;;;5013865;28;20053;-62
2023/04/20 10:46:21;;;;;;;7.95;3.75;;;;;;;;;;5011438;28;20528;-62
2023/04/20 10:49:00;;;;;;;10.60;3.70;;;;;;;;;;4995012;28;20054;-63
2023/04/20 10:51:30;;;;;;;7.20;3.88;;;;;;;;;;5007236;28;20045;-62
2023/04/20 10:54:03;;;;;;;10.50;3.42;;;;;;;;;;5032495;28;20052;-63
2023/04/20 10:56:47;;;;;;;6.75;3.45;;;;;;;;;;5032518;28;20052;-63
2023/04/20 10:59:19;;;;;;;5.18;2.85;;;;;;;;;;5033148;28;20398;-62
2023/04/20 11:01:51;;;;;;;9.70;2.30;;;;;;;;;;5032598;28;20042;-62
2023/04/20 11:04:31;;;;;;;6.95;2.78;;;;;;;;;;5015188;28;20057;-62
2023/04/20 11:07:12;;;;;;;9.50;3.10;;;;;;;;;;5033218;28;20064;-61
2023/04/20 11:09:43;;;;;;;7.70;2.22;;;;;;;;;;4974931;28;20058;-62
2023/04/20 11:12:14;;;;;;;6.90;3.05;;;;;;;;;;4991074;28;20054;-62
2023/04/20 11:14:56;;;;;;;7.80;2.72;;;;;;;;;;4959303;28;20523;-61
2023/04/20 11:17:38;;;;;;;7.35;3.03;;;;;;;;;;4991096;28;20046;-63
2023/04/20 11:20:14;;;;;;;8.40;3.00;;;;;;;;;;4990863;28;20050;-62
2023/04/20 11:22:56;;;;;;;6.68;2.60;;;;;;;;;;4958951;28;20403;-62
2023/04/20 11:25:26;;;;;;;6.20;2.70;;;;;;;;;;4941935;28;20054;-62
2023/04/20 11:28:08;;;;;;;5.45;2.30;;;;;;;;;;4987786;28;20062;-61
2023/04/20 11:30:40;;;;;;;5.45;2.40;;;;;;;;;;4989916;28;20391;-61
2023/04/20 11:33:12;;;;;;;6.32;2.22;;;;;;;;;;4989901;28;20363;-62
2023/04/20 11:35:43;;;;;;;4.57;1.90;;;;;;;;;;4990249;28;20530;-63
2023/04/20 11:38:13;;;;;;;8.52;1.80;;;;;;;;;;4987771;28;20626;-62
2023/04/20 11:40:42;;;;;;;5.90;1.83;;;;;;;;;;4990225;28;20113;-62
2023/04/20 11:43:13;;;;;;;5.15;2.10;;;;;;;;;;4987930;28;20046;-62
2023/04/20 11:45:43;;;;;;;4.82;1.50;;;;;;;;;;4973723;28;20053;-62
2023/04/20 11:48:13;;;;;;;5.65;2.05;;;;;;;;;;5022451;28;20054;-62
2023/04/20 11:50:42;;;;;;;5.82;2.00;;;;;;;;;;5031921;28;20041;-61
2023/04/20 11:53:16;;;;;;;5.03;1.98;;;;;;;;;;5031517;28;20045;-61
2023/04/20 11:55:47;;;;;;;5.07;2.17;;;;;;;;;;5032010;28;20367;-62
2023/04/20 11:58:17;;;;;;;6.80;2.58;;;;;;;;;;4980540;28;20053;-62
2023/04/20 12:00:47;;;;;;;3.97;1.30;;;;;;;;;;4995837;28;20041;-66
2023/04/20 12:03:17;;;;;;;3.03;1.25;;;;;;;;;;4973220;28;20640;-62
2023/04/20 12:05:47;;;;;;;3.45;1.33;;;;;;;;;;4989989;28;20063;-62
2023/04/20 12:08:18;;;;;;;7.70;1.63;;;;;;;;;;4989629;28;20078;-62
2023/04/20 12:10:48;;;;;;;2.25;1.17;;;;;;;;;;4941098;28;21086;-62
2023/04/20 12:13:19;;;;;;;4.53;1.08;;;;;;;;;;4989874;28;20058;-62
2023/04/20 12:15:49;;;;;;;4.32;2.10;;;;;;;;;;4941414;28;20046;-63
2023/04/20 12:18:19;;;;;;;3.88;1.50;;;;;;;;;;4957427;28;20046;-62
2023/04/20 12:20:50;;;;;;;2.78;1.80;;;;;;;;;;4926648;28;20058;-64
2023/04/20 12:23:20;;;;;;;5.40;1.70;;;;;;;;;;4973601;28;20046;-62
2023/04/20 12:25:51;;;;;;;4.72;1.58;;;;;;;;;;4989505;28;20057;-63
2023/04/20 12:28:21;;;;;;;1.83;0.60;;;;;;;;;;4989383;28;20054;-61
2023/04/20 12:30:51;;;;;;;1.63;0.63;;;;;;;;;;4942091;28;20058;-61
2023/04/20 12:33:22;;;;;;;8.60;1.95;;;;;;;;;;4928538;28;20062;-62
2023/04/20 12:35:52;;;;;;;5.90;1.90;;;;;;;;;;4995512;28;20061;-62
2023/04/20 12:38:22;;;;;;;6.57;1.90;;;;;;;;;;4941394;28;20054;-62
2023/04/20 12:40:52;;;;;;;5.47;2.38;;;;;;;;;;4957088;28;20426;-63
2023/04/20 12:43:22;;;;;;;5.45;1.95;;;;;;;;;;4989262;28;20510;-62
2023/04/20 12:45:52;;;;;;;5.57;2.22;;;;;;;;;;4988405;28;20046;-65
2023/04/20 12:48:22;;;;;;;4.32;2.15;;;;;;;;;;4989469;28;20057;-61
2023/04/20 12:50:52;;;;;;;5.15;1.63;;;;;;;;;;4989311;28;20059;-62
2023/04/20 12:53:22;;;;;;;4.07;2.15;;;;;;;;;;4989361;28;20047;-62
2023/04/20 12:55:53;;;;;;;4.57;2.00;;;;;;;;;;4915550;29;20138;-61
2023/04/20 12:58:29;;;;;;;3.97;1.20;;;;;;;;;;4950007;28;20055;-62
2023/04/20 13:00:59;;;;;;;3.45;1.30;;;;;;;;;;4902781;29;20055;-62
2023/04/20 13:03:30;;;;;;;2.90;1.00;;;;;;;;;;4912165;29;20052;-62
2023/04/20 13:06:00;;;;;;;2.63;1.00;;;;;;;;;;4912416;29;20067;-64
2023/04/20 13:08:30;;;;;;;2.25;1.02;;;;;;;;;;4912241;29;20063;-62
2023/04/20 13:11:00;;;;;;;3.60;0.90;;;;;;;;;;4893205;29;20057;-61
2023/04/20 13:13:32;;;;;;;3.08;1.00;;;;;;;;;;4893321;29;20080;-61
2023/04/20 13:16:02;;;;;;;2.53;1.35;;;;;;;;;;4902281;29;20071;-62
2023/04/20 13:18:32;;;;;;;1.13;0.50;;;;;;;;;;4896588;29;20047;-62
2023/04/20 13:21:02;;;;;;;3.95;1.30;;;;;;;;;;4864585;29;20048;-61
2023/04/20 13:23:32;;;;;;;1.52;0.70;;;;;;;;;;4865087;29;20056;-62
2023/04/20 13:26:02;;;;;;;2.63;1.40;;;;;;;;;;4865016;29;20048;-62
2023/04/20 13:28:32;;;;;;;2.28;1.08;;;;;;;;;;4912098;29;20048;-62
2023/04/20 13:31:03;;;;;;;2.60;1.20;;;;;;;;;;4896331;29;20052;-61
2023/04/20 13:33:33;;;;;;;2.38;0.80;;;;;;;;;;4874740;29;20087;-64
2023/04/20 13:36:03;;;;;;;2.17;0.82;;;;;;;;;;4936386;29;20051;-62
2023/04/20 13:38:35;;;;;;;2.92;1.10;;;;;;;;;;4947726;29;20058;-62
2023/04/20 13:41:05;;;;;;;2.47;0.93;;;;;;;;;;4968282;28;20062;-62
2023/04/20 13:43:35;;;;;;;3.00;1.30;;;;;;;;;;4990017;28;20050;-62
2023/04/20 13:46:05;;;;;;;2.35;1.10;;;;;;;;;;4972305;28;20051;-61
2023/04/20 13:48:35;;;;;;;4.60;2.45;;;;;;;;;;4975522;28;20088;-62
2023/04/20 13:51:05;;;;;;;4.10;1.40;;;;;;;;;;5012192;28;20058;-63
2023/04/20 13:53:35;;;;;;;4.13;1.40;;;;;;;;;;4979401;28;20037;-61
2023/04/20 13:56:05;;;;;;;2.72;1.45;;;;;;;;;;5005318;28;20653;-61
2023/04/20 13:58:35;;;;;;;2.47;1.30;;;;;;;;;;4992428;28;20058;-61
2023/04/20 14:01:15;;;;;;;4.60;1.52;;;;;;;;;;4976343;28;20046;-62
2023/04/20 14:03:45;;;;;;;6.00;1.70;;;;;;;;;;4971193;28;21000;-61
2023/04/20 14:06:15;;;;;;;2.28;1.02;;;;;;;;;;5011905;28;20161;-62
2023/04/20 14:08:45;;;;;;;4.68;1.10;;;;;;;;;;4978304;28;20046;-62
2023/04/20 14:11:16;;;;;;;1.75;1.08;;;;;;;;;;4992383;28;20058;-61
2023/04/20 14:13:46;;;;;;;1.77;0.85;;;;;;;;;;4992250;28;20051;-61
2023/04/20 14:16:16;;;;;;;3.83;1.10;;;;;;;;;;4991838;28;20061;-62
2023/04/20 14:18:46;;;;;;;2.40;0.80;;;;;;;;;;4984617;28;20165;-61
2023/04/20 14:21:16;;;;;;;2.25;1.45;;;;;;;;;;4924915;28;20058;-62
2023/04/20 14:23:49;;;;;;;1.85;1.40;;;;;;;;;;4957389;28;20442;-61
2023/04/20 14:26:19;;;;;;;2.20;1.45;;;;;;;;;;4985671;28;20465;-62
2023/04/20 14:28:51;;;;;;;3.90;0.75;;;;;;;;;;4997303;28;20058;-61
2023/04/20 14:31:21;;;;;;;6.45;0.98;;;;;;;;;;5003233;28;20057;-61
2023/04/20 14:33:51;;;;;;;2.25;0.90;;;;;;;;;;4992076;28;20445;-63
2023/04/20 14:36:21;;;;;;;5.75;2.00;;;;;;;;;;4960662;28;20057;-62
2023/04/20 14:38:51;;;;;;;2.15;0.85;;;;;;;;;;4976720;28;20061;-61
2023/04/20 14:41:21;;;;;;;4.03;1.92;;;;;;;;;;4971407;28;20438;-62
2023/04/20 14:43:51;;;;;;;6.65;3.67;;;;;;;;;;4939251;28;20054;-63
2023/04/20 14:46:22;;;;;;;2.78;0.80;;;;;;;;;;4949586;28;20062;-62
2023/04/20 14:48:53;;;;;;;0.90;0.70;;;;;;;;;;4932807;29;20100;-62
2023/04/20 14:51:23;;;;;;;2.05;0.80;;;;;;;;;;4933466;29;20078;-62
2023/04/20 14:53:53;;;;;;;1.52;0.70;;;;;;;;;;4917141;29;20055;-62
2023/04/20 14:56:23;;;;;;;1.90;0.55;;;;;;;;;;4933256;29;20048;-62
2023/04/20 14:58:54;;;;;;;2.30;0.70;;;;;;;;;;4902006;29;20060;-62
2023/04/20 15:01:24;;;;;;;1.70;0.82;;;;;;;;;;4886078;29;20059;-62
2023/04/20 15:03:55;;;;;;;8.82;0.32;;;;;;;;;;4917225;29;20051;-60
2023/04/20 15:06:29;;;;;;;2.05;0.50;;;;;;;;;;4917442;29;20078;-62
2023/04/20 15:08:59;;;;;;;1.35;0.32;;;;;;;;;;4871058;29;20589;-62
2023/04/20 15:11:29;;;;;;;0.60;0.20;;;;;;;;;;4901881;29;20059;-63